createdAt,value
2022-11-12T00:02:37.135Z,18.61
2022-11-12T00:05:23.413Z,18.60
2022-11-12T00:08:09.777Z,18.61
2022-11-12T00:10:57.401Z,18.66
2022-11-12T00:13:43.895Z,18.69
2022-11-12T00:16:29.910Z,18.71
2022-11-12T00:19:16.296Z,18.71
2022-11-12T00:22:02.574Z,18.69
2022-11-12T00:24:49.049Z,18.70
2022-11-12T00:27:37.095Z,18.70
2022-11-12T00:30:23.414Z,18.69
2022-11-12T00:33:09.874Z,18.67
2022-11-12T00:35:56.143Z,18.68
2022-11-12T00:38:42.435Z,18.69
2022-11-12T00:41:28.787Z,18.69
2022-11-12T00:44:16.563Z,18.68
2022-11-12T00:47:02.577Z,18.67
2022-11-12T00:49:48.958Z,18.68
2022-11-12T00:52:35.052Z,18.68
2022-11-12T00:55:21.435Z,18.67
2022-11-12T00:58:07.699Z,18.67
2022-11-12T01:00:55.319Z,18.68
2022-11-12T01:03:42.107Z,18.67
2022-11-12T01:06:28.478Z,18.68
2022-11-12T01:09:14.676Z,18.66
2022-11-12T01:12:01.111Z,18.67
2022-11-12T01:14:47.478Z,18.65
2022-11-12T01:17:35.058Z,18.66
2022-11-12T01:20:21.356Z,18.67
2022-11-12T01:23:07.976Z,18.66
2022-11-12T01:25:54.161Z,18.65
2022-11-12T01:28:40.571Z,18.66
2022-11-12T01:31:27.427Z,18.65
2022-11-12T01:34:15.175Z,18.64
2022-11-12T01:37:01.533Z,18.64
2022-11-12T01:39:47.810Z,18.66
2022-11-12T01:42:34.111Z,18.65
2022-11-12T01:45:20.392Z,18.64
2022-11-12T01:48:06.495Z,18.64
2022-11-12T01:50:54.240Z,18.64
2022-11-12T01:53:41.285Z,18.65
2022-11-12T01:56:28.269Z,18.63
2022-11-12T01:59:15.607Z,18.63
2022-11-12T02:02:01.873Z,18.63
2022-11-12T02:04:48.328Z,18.62
2022-11-12T02:07:36.139Z,18.64
2022-11-12T02:10:22.331Z,18.63
2022-11-12T02:13:25.885Z,18.62
2022-11-12T02:16:12.199Z,18.62
2022-11-12T02:19:11.507Z,18.62
2022-11-12T02:21:59.159Z,18.61
2022-11-12T02:24:45.323Z,18.61
2022-11-12T02:27:31.641Z,18.61
2022-11-12T02:30:18.055Z,18.60
2022-11-12T02:33:04.428Z,18.61
2022-11-12T02:35:50.602Z,18.59
2022-11-12T02:38:38.504Z,18.61
2022-11-12T02:41:24.717Z,18.60
2022-11-12T02:44:10.647Z,18.60
2022-11-12T02:46:56.969Z,18.60
2022-11-12T02:49:44.628Z,18.60
2022-11-12T02:52:30.938Z,18.60
2022-11-12T02:55:18.723Z,18.59
2022-11-12T02:58:05.112Z,18.60
2022-11-12T03:00:51.558Z,18.61
2022-11-12T03:03:37.889Z,18.59
2022-11-12T03:06:24.055Z,18.58
2022-11-12T03:09:11.966Z,18.59
2022-11-12T03:11:59.828Z,18.58
2022-11-12T03:14:45.961Z,18.59
2022-11-12T03:17:32.238Z,18.59
2022-11-12T03:20:18.837Z,18.59
2022-11-12T03:23:05.738Z,18.58
2022-11-12T03:25:51.879Z,18.58
2022-11-12T03:28:39.596Z,18.57
2022-11-12T03:31:25.867Z,18.58
2022-11-12T03:34:12.147Z,18.57
2022-11-12T03:36:58.694Z,18.57
2022-11-12T03:39:44.923Z,18.56
2022-11-12T03:42:31.151Z,18.56
2022-11-12T03:45:19.050Z,18.56
2022-11-12T03:48:05.496Z,18.56
2022-11-12T03:50:51.667Z,18.57
2022-11-12T03:53:37.883Z,18.56
2022-11-12T03:56:24.054Z,18.57
2022-11-12T03:59:10.761Z,18.56
2022-11-12T04:01:58.258Z,18.55
2022-11-12T04:05:02.308Z,18.57
2022-11-12T04:08:07.798Z,18.56
2022-11-12T04:10:54.117Z,18.56
2022-11-12T04:13:42.010Z,18.56
2022-11-12T04:16:45.772Z,18.55
2022-11-12T04:19:51.091Z,18.54
2022-11-12T04:22:37.571Z,18.54
2022-11-12T04:25:41.420Z,18.53
2022-11-12T04:28:28.057Z,18.53
2022-11-12T04:31:13.570Z,18.53
2022-11-12T04:34:20.642Z,18.52
2022-11-12T04:37:08.184Z,18.53
2022-11-12T04:39:54.373Z,18.52
2022-11-12T04:42:58.349Z,18.50
2022-11-12T04:45:44.911Z,18.51
2022-11-12T04:48:31.141Z,18.53
2022-11-12T04:51:35.086Z,18.51
2022-11-12T04:54:22.613Z,18.50
2022-11-12T04:57:09.125Z,18.49
2022-11-12T04:59:55.339Z,18.49
2022-11-12T05:02:41.514Z,18.49
2022-11-12T05:05:32.645Z,18.48
2022-11-12T05:08:19.937Z,18.47
2022-11-12T05:11:12.702Z,18.46
2022-11-12T05:13:59.573Z,18.46
2022-11-12T05:16:46.079Z,18.47
2022-11-12T05:19:32.386Z,18.45
2022-11-12T05:22:42.169Z,18.46
2022-11-12T05:25:24.466Z,18.45
2022-11-12T05:28:12.050Z,18.45
2022-11-12T05:30:58.289Z,18.44
2022-11-12T05:33:44.374Z,18.44
2022-11-12T05:36:30.955Z,18.43
2022-11-12T05:39:17.065Z,18.44
2022-11-12T05:42:18.110Z,18.43
2022-11-12T05:45:06.045Z,18.42
2022-11-12T05:47:52.005Z,18.43
2022-11-12T05:50:51.226Z,18.43
2022-11-12T05:53:44.431Z,18.44
2022-11-12T05:56:31.229Z,18.42
2022-11-12T05:59:17.524Z,18.42
2022-11-12T06:02:05.412Z,18.42
2022-11-12T06:04:51.956Z,18.42
2022-11-12T06:07:38.224Z,18.41
2022-11-12T06:10:24.929Z,18.39
2022-11-12T06:13:11.250Z,18.40
2022-11-12T06:15:57.707Z,18.41
2022-11-12T06:18:45.385Z,18.41
2022-11-12T06:21:31.967Z,18.40
2022-11-12T06:24:18.169Z,18.40
2022-11-12T06:27:04.754Z,18.40
2022-11-12T06:29:51.133Z,18.39
2022-11-12T06:32:37.334Z,18.40
2022-11-12T06:35:25.122Z,18.39
2022-11-12T06:38:11.444Z,18.41
2022-11-12T06:41:01.100Z,18.43
2022-11-12T06:43:47.706Z,18.42
2022-11-12T06:46:33.672Z,18.41
2022-11-12T06:49:19.960Z,18.40
2022-11-12T06:52:10.047Z,18.40
2022-11-12T06:54:59.828Z,18.39
2022-11-12T06:57:46.191Z,18.38
2022-11-12T07:00:32.699Z,18.38
2022-11-12T07:03:18.814Z,18.39
2022-11-12T07:06:05.920Z,18.38
2022-11-12T07:08:53.664Z,18.42
2022-11-12T07:11:41.862Z,18.40
2022-11-12T07:14:28.175Z,18.40
2022-11-12T07:17:14.400Z,18.39
2022-11-12T07:20:04.034Z,18.41
2022-11-12T07:22:50.418Z,18.45
2022-11-12T07:25:38.091Z,18.45
2022-11-12T07:28:24.559Z,18.46
2022-11-12T07:31:11.468Z,18.46
2022-11-12T07:33:57.418Z,18.31
2022-11-12T07:36:43.702Z,17.22
2022-11-12T07:39:30.000Z,16.22
2022-11-12T07:42:17.755Z,15.79
2022-11-12T07:45:04.219Z,15.35
2022-11-12T07:47:50.199Z,15.30
2022-11-12T07:50:36.421Z,16.17
2022-11-12T07:53:22.784Z,16.89
2022-11-12T07:56:10.733Z,17.30
2022-11-12T07:58:58.380Z,17.37
2022-11-12T08:01:45.396Z,17.45
2022-11-12T08:04:31.489Z,17.64
2022-11-12T08:07:17.764Z,17.83
2022-11-12T08:10:03.939Z,17.97
2022-11-12T08:12:50.508Z,18.04
2022-11-12T08:15:37.898Z,18.08
2022-11-12T08:18:24.386Z,18.16
2022-11-12T08:21:11.401Z,18.24
2022-11-12T08:23:57.990Z,18.29
2022-11-12T08:26:44.473Z,18.30
2022-11-12T08:29:30.793Z,18.36
2022-11-12T08:32:18.383Z,18.41
2022-11-12T08:35:04.887Z,18.46
2022-11-12T08:37:51.165Z,18.49
2022-11-12T08:40:37.887Z,18.54
2022-11-12T08:43:24.178Z,18.61
2022-11-12T08:46:10.557Z,18.64
2022-11-12T08:48:58.425Z,18.65
2022-11-12T08:51:44.648Z,18.65
2022-11-12T08:54:30.968Z,18.65
2022-11-12T08:57:17.605Z,18.65
2022-11-12T09:00:04.167Z,18.63
2022-11-12T09:02:50.443Z,18.63
2022-11-12T09:05:38.051Z,18.62
2022-11-12T09:08:25.412Z,18.63
2022-11-12T09:11:11.895Z,18.63
2022-11-12T09:13:58.243Z,18.63
2022-11-12T09:16:44.526Z,18.64
2022-11-12T09:19:30.913Z,18.63
2022-11-12T09:22:18.759Z,18.63
2022-11-12T09:25:05.372Z,18.69
2022-11-12T09:27:51.894Z,18.16
2022-11-12T09:30:39.134Z,18.01
2022-11-12T09:33:25.882Z,17.99
2022-11-12T09:36:12.132Z,18.16
2022-11-12T09:38:59.637Z,18.34
2022-11-12T09:41:45.838Z,18.46
2022-11-12T09:44:36.700Z,18.56
2022-11-12T09:47:24.792Z,18.62
2022-11-12T09:50:16.272Z,18.64
2022-11-12T09:53:04.560Z,18.64
2022-11-12T09:55:52.573Z,18.61
2022-11-12T09:58:38.930Z,18.62
2022-11-12T10:01:29.872Z,18.62
2022-11-12T10:04:29.540Z,18.61
2022-11-12T10:07:18.686Z,18.61
2022-11-12T10:10:06.395Z,18.65
2022-11-12T10:12:59.235Z,18.70
2022-11-12T10:16:06.920Z,18.73
2022-11-12T10:19:01.768Z,18.74
2022-11-12T10:21:50.755Z,18.76
2022-11-12T10:24:37.851Z,18.77
2022-11-12T10:27:26.266Z,18.78
2022-11-12T10:30:18.012Z,18.78
2022-11-12T10:33:05.611Z,18.79
2022-11-12T10:35:52.413Z,18.80
2022-11-12T10:38:38.804Z,18.82
2022-11-12T10:41:25.641Z,18.83
2022-11-12T10:44:15.695Z,18.83
2022-11-12T10:47:21.232Z,18.85
2022-11-12T10:50:14.075Z,18.85
2022-11-12T10:53:01.596Z,18.86
2022-11-12T10:55:56.572Z,18.89
2022-11-12T10:58:43.647Z,18.89
2022-11-12T11:01:35.003Z,18.90
2022-11-12T11:04:26.576Z,18.89
2022-11-12T11:07:17.677Z,18.88
2022-11-12T11:10:04.267Z,18.89
2022-11-12T11:12:50.522Z,18.91
2022-11-12T11:15:36.946Z,18.96
2022-11-12T11:18:23.104Z,19.00
2022-11-12T11:21:14.674Z,19.06
2022-11-12T11:24:04.264Z,19.11
2022-11-12T11:26:53.475Z,19.16
2022-11-12T11:29:43.427Z,19.19
2022-11-12T11:32:37.594Z,19.22
2022-11-12T11:35:27.149Z,19.28
2022-11-12T11:38:21.433Z,19.31
2022-11-12T11:41:14.776Z,19.31
2022-11-12T11:44:04.452Z,19.37
2022-11-12T11:46:53.287Z,19.39
2022-11-12T11:49:48.500Z,19.43
2022-11-12T11:52:39.508Z,19.46
2022-11-12T11:55:33.178Z,19.48
2022-11-12T11:58:36.146Z,19.52
2022-11-12T12:01:23.121Z,19.54
2022-11-12T12:04:17.173Z,19.57
2022-11-12T12:07:06.387Z,19.60
2022-11-12T12:09:54.992Z,19.61
2022-11-12T12:12:46.148Z,19.64
2022-11-12T12:15:36.907Z,19.65
2022-11-12T12:18:26.968Z,19.68
2022-11-12T12:21:13.496Z,19.70
2022-11-12T12:24:01.207Z,19.72
2022-11-12T12:26:47.692Z,19.74
2022-11-12T12:29:36.104Z,19.77
2022-11-12T12:32:24.563Z,19.78
2022-11-12T12:35:14.620Z,19.80
2022-11-12T12:38:04.077Z,19.74
2022-11-12T12:40:51.040Z,19.69
2022-11-12T12:43:38.039Z,19.68
2022-11-12T12:46:26.990Z,19.68
2022-11-12T12:49:14.638Z,19.75
2022-11-12T12:52:00.589Z,19.99
2022-11-12T12:54:56.396Z,20.19
2022-11-12T12:57:42.723Z,20.29
2022-11-12T13:00:30.641Z,20.34
2022-11-12T13:03:31.687Z,20.36
2022-11-12T13:06:23.033Z,20.37
2022-11-12T13:09:25.067Z,20.37
2022-11-12T13:12:23.597Z,20.33
2022-11-12T13:15:14.128Z,20.34
2022-11-12T13:17:59.983Z,20.35
2022-11-12T13:21:07.784Z,20.31
2022-11-12T13:24:08.020Z,20.30
2022-11-12T13:26:55.921Z,20.27
2022-11-12T13:29:42.874Z,20.27
2022-11-12T13:32:30.343Z,20.25
2022-11-12T13:35:20.726Z,20.23
2022-11-12T13:38:12.855Z,20.21
2022-11-12T13:41:05.556Z,20.19
2022-11-12T13:43:51.679Z,20.15
2022-11-12T13:46:38.114Z,20.16
2022-11-12T13:49:24.377Z,20.14
2022-11-12T13:52:12.653Z,20.14
2022-11-12T13:55:02.175Z,20.13
2022-11-12T13:57:53.401Z,20.12
2022-11-12T14:00:39.900Z,20.12
2022-11-12T14:03:26.670Z,20.08
2022-11-12T14:06:16.292Z,20.09
2022-11-12T14:09:11.912Z,20.07
2022-11-12T14:12:02.391Z,19.82
2022-11-12T14:14:53.775Z,19.58
2022-11-12T14:17:41.253Z,19.55
2022-11-12T14:20:30.454Z,19.31
2022-11-12T14:23:23.104Z,19.17
2022-11-12T14:26:10.932Z,18.96
2022-11-12T14:28:56.999Z,18.89
2022-11-12T14:31:44.612Z,18.71
2022-11-12T14:34:31.430Z,18.62
2022-11-12T14:37:22.252Z,18.73
2022-11-12T14:40:15.841Z,18.66
2022-11-12T14:43:01.906Z,18.92
2022-11-12T14:45:48.627Z,19.13
2022-11-12T14:48:37.746Z,19.27
2022-11-12T14:51:24.365Z,19.32
2022-11-12T14:54:11.304Z,19.35
2022-11-12T14:56:57.356Z,19.35
2022-11-12T14:59:43.868Z,19.37
2022-11-12T15:02:47.266Z,19.39
2022-11-12T15:05:47.478Z,19.42
2022-11-12T15:08:34.033Z,19.44
2022-11-12T15:11:22.315Z,19.42
2022-11-12T15:14:10.746Z,19.42
2022-11-12T15:16:56.911Z,19.42
2022-11-12T15:19:43.274Z,19.40
2022-11-12T15:22:31.145Z,19.40
2022-11-12T15:25:20.532Z,19.39
2022-11-12T15:28:13.320Z,19.39
2022-11-12T15:31:02.635Z,19.39
2022-11-12T15:33:48.853Z,19.39
2022-11-12T15:36:34.943Z,19.39
2022-11-12T15:39:22.897Z,19.29
2022-11-12T15:42:13.976Z,19.28
2022-11-12T15:45:01.166Z,19.32
2022-11-12T15:47:47.451Z,19.34
2022-11-12T15:50:33.715Z,19.34
2022-11-12T15:53:20.024Z,19.35
2022-11-12T15:56:09.380Z,19.30
2022-11-12T15:58:55.474Z,19.29
2022-11-12T16:01:42.016Z,19.31
2022-11-12T16:04:28.422Z,19.31
2022-11-12T16:07:14.897Z,19.31
2022-11-12T16:10:01.494Z,19.32
2022-11-12T16:12:49.301Z,19.33
2022-11-12T16:15:35.959Z,19.33
2022-11-12T16:18:22.113Z,19.33
2022-11-12T16:21:09.338Z,19.32
2022-11-12T16:23:55.809Z,19.33
2022-11-12T16:26:41.987Z,19.33
2022-11-12T16:29:29.583Z,19.34
2022-11-12T16:32:16.164Z,19.34
2022-11-12T16:35:02.720Z,19.32
2022-11-12T16:37:48.884Z,19.33
2022-11-12T16:40:35.038Z,19.32
2022-11-12T16:43:21.727Z,19.31
2022-11-12T16:46:14.012Z,19.32
2022-11-12T16:49:00.574Z,19.32
2022-11-12T16:51:47.167Z,19.32
2022-11-12T16:54:33.676Z,19.34
2022-11-12T16:57:19.923Z,19.34
2022-11-12T17:00:06.858Z,19.33
2022-11-12T17:02:54.805Z,19.33
2022-11-12T17:05:41.084Z,19.32
2022-11-12T17:08:33.691Z,19.30
2022-11-12T17:11:20.209Z,19.30
2022-11-12T17:14:06.640Z,19.32
2022-11-12T17:16:52.920Z,19.32
2022-11-12T17:19:40.706Z,19.30
2022-11-12T17:22:27.007Z,19.30
2022-11-12T17:25:13.085Z,19.29
2022-11-12T17:27:59.440Z,19.32
2022-11-12T17:30:45.958Z,19.32
2022-11-12T17:33:32.391Z,19.34
2022-11-12T17:36:20.108Z,19.35
2022-11-12T17:39:06.678Z,19.34
2022-11-12T17:41:52.901Z,19.34
2022-11-12T17:44:39.052Z,19.32
2022-11-12T17:47:25.457Z,19.32
2022-11-12T17:50:11.808Z,19.31
2022-11-12T17:52:59.593Z,19.29
2022-11-12T17:55:46.086Z,19.28
2022-11-12T17:58:32.315Z,19.30
2022-11-12T18:01:19.476Z,19.29
2022-11-12T18:04:06.059Z,19.28
2022-11-12T18:06:52.167Z,19.29
2022-11-12T18:09:39.963Z,19.28
2022-11-12T18:12:26.177Z,19.28
2022-11-12T18:15:12.940Z,19.26
2022-11-12T18:17:59.155Z,19.26
2022-11-12T18:20:45.419Z,19.27
2022-11-12T18:23:31.663Z,19.26
2022-11-12T18:26:19.692Z,19.26
2022-11-12T18:29:07.268Z,19.26
2022-11-12T18:31:53.427Z,19.25
2022-11-12T18:34:44.423Z,19.25
2022-11-12T18:37:30.437Z,19.26
2022-11-12T18:40:17.274Z,19.25
2022-11-12T18:43:04.991Z,19.23
2022-11-12T18:45:54.729Z,19.23
2022-11-12T18:48:41.351Z,19.22
2022-11-12T18:51:27.693Z,19.21
2022-11-12T18:54:15.178Z,19.21
2022-11-12T18:57:01.286Z,19.20
2022-11-12T18:59:49.518Z,19.19
2022-11-12T19:02:35.719Z,19.20
2022-11-12T19:05:22.735Z,19.17
2022-11-12T19:08:08.980Z,19.17
2022-11-12T19:10:59.108Z,19.15
2022-11-12T19:13:47.093Z,19.15
2022-11-12T19:16:35.069Z,19.14
2022-11-12T19:19:21.536Z,19.13
2022-11-12T19:22:07.679Z,19.13
2022-11-12T19:24:54.355Z,19.13
2022-11-12T19:27:40.867Z,19.14
2022-11-12T19:30:27.168Z,19.13
2022-11-12T19:33:14.837Z,19.12
2022-11-12T19:36:06.280Z,19.12
2022-11-12T19:38:56.782Z,19.11
2022-11-12T19:41:42.790Z,19.10
2022-11-12T19:44:29.053Z,19.09
2022-11-12T19:47:15.470Z,19.10
2022-11-12T19:50:03.222Z,19.12
2022-11-12T19:52:49.845Z,19.10
2022-11-12T19:55:39.817Z,19.12
2022-11-12T19:58:26.783Z,19.11
2022-11-12T20:01:14.634Z,19.10
2022-11-12T20:04:00.723Z,19.11
2022-11-12T20:06:48.401Z,19.10
2022-11-12T20:09:35.313Z,19.08
2022-11-12T20:12:21.660Z,19.09
2022-11-12T20:15:08.758Z,19.08
2022-11-12T20:17:55.626Z,19.07
2022-11-12T20:20:42.228Z,19.06
2022-11-12T20:23:30.006Z,19.05
2022-11-12T20:26:17.201Z,19.03
2022-11-12T20:29:03.556Z,19.04
2022-11-12T20:31:49.836Z,19.01
2022-11-12T20:34:36.437Z,19.03
2022-11-12T20:37:23.475Z,19.00
2022-11-12T20:40:11.873Z,19.01
2022-11-12T20:42:58.314Z,19.00
2022-11-12T20:45:44.851Z,19.00
2022-11-12T20:48:30.964Z,19.00
2022-11-12T20:51:25.703Z,19.00
2022-11-12T20:54:13.784Z,18.99
2022-11-12T20:57:03.574Z,18.98
2022-11-12T20:59:51.468Z,18.99
2022-11-12T21:02:38.410Z,19.00
2022-11-12T21:05:24.902Z,18.99
2022-11-12T21:08:11.891Z,18.97
2022-11-12T21:10:58.364Z,18.96
2022-11-12T21:13:46.553Z,18.96
2022-11-12T21:16:32.955Z,18.95
2022-11-12T21:19:19.409Z,18.94
2022-11-12T21:22:06.040Z,18.95
2022-11-12T21:24:52.649Z,18.95
2022-11-12T21:27:39.206Z,18.95
2022-11-12T21:30:27.000Z,18.94
2022-11-12T21:33:14.999Z,18.94
2022-11-12T21:36:01.427Z,18.94
2022-11-12T21:38:49.642Z,18.95
2022-11-12T21:41:36.710Z,18.94
2022-11-12T21:44:23.030Z,18.92
2022-11-12T21:47:11.194Z,18.94
2022-11-12T21:49:57.553Z,18.93
2022-11-12T21:52:44.309Z,18.92
2022-11-12T21:55:30.959Z,18.92
2022-11-12T21:58:17.753Z,18.91
2022-11-12T22:01:11.119Z,18.91
2022-11-12T22:03:59.459Z,18.90
2022-11-12T22:06:45.980Z,18.90
2022-11-12T22:09:33.201Z,18.91
2022-11-12T22:12:19.753Z,18.89
2022-11-12T22:15:06.465Z,18.89
2022-11-12T22:17:52.839Z,18.87
2022-11-12T22:20:40.549Z,18.87
2022-11-12T22:23:27.060Z,18.87
2022-11-12T22:26:14.279Z,18.87
2022-11-12T22:29:01.335Z,18.86
2022-11-12T22:31:47.738Z,18.83
2022-11-12T22:34:33.991Z,18.83
2022-11-12T22:37:21.655Z,18.84
2022-11-12T22:40:13.184Z,18.83
2022-11-12T22:42:59.940Z,18.84
2022-11-12T22:45:46.645Z,18.81
2022-11-12T22:48:33.025Z,18.81
2022-11-12T22:51:21.910Z,18.82
2022-11-12T22:54:13.261Z,18.80
2022-11-12T22:57:10.272Z,18.80
2022-11-12T22:59:58.649Z,18.81
2022-11-12T23:02:47.582Z,18.79
2022-11-12T23:05:34.241Z,18.80
2022-11-12T23:08:20.516Z,18.79
2022-11-12T23:11:08.975Z,18.81
2022-11-12T23:13:55.344Z,18.80
2022-11-12T23:16:42.065Z,18.79
2022-11-12T23:19:28.576Z,18.79
2022-11-12T23:22:14.957Z,18.79
2022-11-12T23:25:01.897Z,18.81
2022-11-12T23:27:49.668Z,18.80
2022-11-12T23:30:36.272Z,18.78
2022-11-12T23:33:22.487Z,18.77
2022-11-12T23:36:13.550Z,18.77
2022-11-12T23:39:00.124Z,18.75
2022-11-12T23:41:49.734Z,18.78
2022-11-12T23:44:38.009Z,18.75
2022-11-12T23:47:25.159Z,18.77
2022-11-12T23:50:11.583Z,18.75
2022-11-12T23:52:58.168Z,18.75
2022-11-12T23:55:44.948Z,18.76
2022-11-12T23:58:31.482Z,18.75
